POE4234 CYYZ-CYQM
Flight info
| Callsign | POE4234 |
|---|---|
| Flight time | 2h 10m |
| Altitude | 25000 |
| Route | BOMET8 OLABA Q951 TALNO Q929 TOXAL DCT DANOL Q951 PUXOP |
| Aircraft | DH8D/M-SDE2E3FGRY/H |
Departure
| Time | 2026-05-08 10:43 |
|---|---|
| Airport | Toronto Pearson International Airport (CYYZ) |
Arrival
| Time | 2026-05-08 12:54 |
|---|---|
| Airport | Greater Moncton Roméo LeBlanc International Airport (CYQM) |
| Time | Latitude | Longitude | Altitude | Speed | Heading |
|---|---|---|---|---|---|
| 2026-05-08 10:32 | 43.68348 | -79.61917 | 551 ft | 0 kts | 286° |
| 2026-05-08 10:34 | 43.68346 | -79.61910 | 551 ft | 2 kts | 286° |
| 2026-05-08 10:34 | 43.68343 | -79.61893 | 551 ft | 0 kts | 286° |
| 2026-05-08 10:34 | 43.68340 | -79.61877 | 551 ft | 2 kts | 271° |
| 2026-05-08 10:35 | 43.68342 | -79.61857 | 551 ft | 2 kts | 252° |
| 2026-05-08 10:35 | 43.68348 | -79.61839 | 551 ft | 2 kts | 234° |
| 2026-05-08 10:35 | 43.68359 | -79.61824 | 551 ft | 2 kts | 215° |
| 2026-05-08 10:35 | 43.68370 | -79.61815 | 551 ft | 1 kts | 199° |
| 2026-05-08 10:36 | 43.68372 | -79.61814 | 551 ft | 0 kts | 198° |
| 2026-05-08 10:37 | 43.68346 | -79.61826 | 551 ft | 9 kts | 197° |
| 2026-05-08 10:38 | 43.68248 | -79.61829 | 551 ft | 17 kts | 171° |
| 2026-05-08 10:38 | 43.68143 | -79.61843 | 551 ft | 14 kts | 219° |
| 2026-05-08 10:38 | 43.68074 | -79.61942 | 551 ft | 16 kts | 226° |
| 2026-05-08 10:38 | 43.67976 | -79.62022 | 551 ft | 14 kts | 223° |
| 2026-05-08 10:39 | 43.67892 | -79.62054 | 551 ft | 13 kts | 159° |
| 2026-05-08 10:39 | 43.67813 | -79.61965 | 551 ft | 15 kts | 137° |
| 2026-05-08 10:39 | 43.67730 | -79.61852 | 551 ft | 17 kts | 136° |
| 2026-05-08 10:39 | 43.67638 | -79.61737 | 551 ft | 18 kts | 138° |
| 2026-05-08 10:40 | 43.67565 | -79.61639 | 551 ft | 12 kts | 134° |
| 2026-05-08 10:40 | 43.67497 | -79.61549 | 551 ft | 14 kts | 136° |
| 2026-05-08 10:40 | 43.67414 | -79.61440 | 546 ft | 18 kts | 136° |
| 2026-05-08 10:40 | 43.67316 | -79.61359 | 541 ft | 14 kts | 197° |
| 2026-05-08 10:41 | 43.67247 | -79.61437 | 541 ft | 11 kts | 223° |
| 2026-05-08 10:41 | 43.67196 | -79.61501 | 542 ft | 10 kts | 222° |
| 2026-05-08 10:41 | 43.67180 | -79.61578 | 544 ft | 7 kts | 299° |
| 2026-05-08 10:41 | 43.67195 | -79.61604 | 545 ft | 0 kts | 316° |
| 2026-05-08 10:42 | 43.67199 | -79.61610 | 545 ft | 5 kts | 316° |
| 2026-05-08 10:42 | 43.67413 | -79.61888 | 551 ft | 86 kts | 316° |
| 2026-05-08 10:42 | 43.68025 | -79.62688 | 567 ft | 146 kts | 317° |
| 2026-05-08 10:43 | 43.68779 | -79.63633 | 1075 ft | 148 kts | 318° |
| 2026-05-08 10:43 | 43.69540 | -79.64539 | 1752 ft | 145 kts | 318° |
| 2026-05-08 10:43 | 43.70313 | -79.65449 | 2289 ft | 154 kts | 321° |
| 2026-05-08 10:43 | 43.71257 | -79.66291 | 2718 ft | 171 kts | 328° |
| 2026-05-08 10:44 | 43.72314 | -79.67126 | 3290 ft | 180 kts | 328° |
| 2026-05-08 10:44 | 43.73438 | -79.67963 | 3868 ft | 184 kts | 331° |
| 2026-05-08 10:44 | 43.74577 | -79.68784 | 4443 ft | 184 kts | 330° |
| 2026-05-08 10:44 | 43.75689 | -79.69587 | 5029 ft | 183 kts | 330° |
| 2026-05-08 10:45 | 43.76820 | -79.70393 | 5583 ft | 184 kts | 330° |
| 2026-05-08 10:45 | 43.77952 | -79.71195 | 6173 ft | 184 kts | 330° |
| 2026-05-08 10:45 | 43.79087 | -79.71993 | 6734 ft | 185 kts | 330° |
| 2026-05-08 10:45 | 43.80238 | -79.72797 | 7317 ft | 186 kts | 330° |
| 2026-05-08 10:46 | 43.81394 | -79.73586 | 7869 ft | 188 kts | 330° |
| 2026-05-08 10:46 | 43.82562 | -79.74363 | 8472 ft | 188 kts | 330° |
| 2026-05-08 10:46 | 43.83744 | -79.75139 | 9066 ft | 188 kts | 330° |
| 2026-05-08 10:46 | 43.84931 | -79.75906 | 9617 ft | 191 kts | 330° |
| 2026-05-08 10:47 | 43.86140 | -79.76669 | 10244 ft | 190 kts | 330° |
| 2026-05-08 10:47 | 43.87375 | -79.77439 | 10526 ft | 209 kts | 330° |
| 2026-05-08 10:47 | 43.88773 | -79.78321 | 10692 ft | 226 kts | 330° |
| 2026-05-08 10:47 | 43.90276 | -79.79022 | 11163 ft | 238 kts | 349° |
| 2026-05-08 10:48 | 43.91933 | -79.78426 | 11602 ft | 261 kts | 27° |
| 2026-05-08 10:48 | 43.93092 | -79.76412 | 12028 ft | 282 kts | 64° |
| 2026-05-08 10:48 | 43.93247 | -79.73720 | 12464 ft | 292 kts | 101° |
| 2026-05-08 10:48 | 43.92309 | -79.71240 | 12947 ft | 291 kts | 133° |
| 2026-05-08 10:49 | 43.90944 | -79.69190 | 13462 ft | 292 kts | 136° |
| 2026-05-08 10:49 | 43.89563 | -79.67098 | 13978 ft | 295 kts | 135° |
| 2026-05-08 10:49 | 43.88191 | -79.64972 | 14480 ft | 298 kts | 135° |
| 2026-05-08 10:49 | 43.86818 | -79.62814 | 14925 ft | 301 kts | 134° |
| 2026-05-08 10:50 | 43.85429 | -79.60603 | 15344 ft | 305 kts | 134° |
| 2026-05-08 10:50 | 43.84048 | -79.58382 | 15787 ft | 308 kts | 134° |
| 2026-05-08 10:50 | 43.82650 | -79.56120 | 16217 ft | 310 kts | 133° |
| 2026-05-08 10:50 | 43.81237 | -79.53828 | 16620 ft | 314 kts | 134° |
| 2026-05-08 10:51 | 43.79828 | -79.51537 | 16982 ft | 316 kts | 133° |
| 2026-05-08 10:51 | 43.78486 | -79.49114 | 17371 ft | 321 kts | 120° |
| 2026-05-08 10:51 | 43.77900 | -79.46161 | 17641 ft | 323 kts | 87° |
| 2026-05-08 10:51 | 43.78173 | -79.43094 | 18072 ft | 319 kts | 75° |
| 2026-05-08 10:52 | 43.78579 | -79.40061 | 18409 ft | 322 kts | 75° |
| 2026-05-08 10:52 | 43.78988 | -79.37031 | 18813 ft | 323 kts | 75° |
| 2026-05-08 10:52 | 43.79401 | -79.33958 | 19087 ft | 327 kts | 75° |
| 2026-05-08 10:52 | 43.79812 | -79.30885 | 19404 ft | 329 kts | 75° |
| 2026-05-08 10:53 | 43.80228 | -79.27758 | 19723 ft | 331 kts | 75° |
| 2026-05-08 10:53 | 43.80644 | -79.24618 | 20050 ft | 331 kts | 75° |
| 2026-05-08 10:53 | 43.81057 | -79.21490 | 20247 ft | 335 kts | 75° |
| 2026-05-08 10:53 | 43.81472 | -79.18335 | 20531 ft | 334 kts | 75° |
| 2026-05-08 10:54 | 43.81891 | -79.15152 | 20679 ft | 338 kts | 75° |
| 2026-05-08 10:54 | 43.82310 | -79.11948 | 20993 ft | 337 kts | 75° |
| 2026-05-08 10:54 | 43.82724 | -79.08755 | 21134 ft | 341 kts | 75° |
| 2026-05-08 10:54 | 43.83048 | -79.05491 | 21323 ft | 343 kts | 78° |
| 2026-05-08 10:55 | 43.83323 | -79.02213 | 21544 ft | 344 kts | 78° |
| 2026-05-08 10:55 | 43.83597 | -78.98937 | 21713 ft | 346 kts | 78° |
| 2026-05-08 10:55 | 43.83875 | -78.95646 | 21928 ft | 345 kts | 78° |
| 2026-05-08 10:55 | 43.84155 | -78.92349 | 22042 ft | 348 kts | 78° |
| 2026-05-08 10:56 | 43.84440 | -78.88998 | 22176 ft | 351 kts | 78° |
| 2026-05-08 10:56 | 43.84725 | -78.85655 | 22334 ft | 351 kts | 78° |
| 2026-05-08 10:56 | 43.85056 | -78.82303 | 22524 ft | 349 kts | 72° |
| 2026-05-08 10:56 | 43.85911 | -78.79266 | 22675 ft | 338 kts | 55° |
| 2026-05-08 10:57 | 43.87019 | -78.76408 | 22810 ft | 339 kts | 53° |
| 2026-05-08 10:57 | 43.88154 | -78.73511 | 22970 ft | 340 kts | 53° |
| 2026-05-08 10:57 | 43.90402 | -78.67749 | 23262 ft | 341 kts | 53° |
| 2026-05-08 10:58 | 43.91530 | -78.64848 | 23393 ft | 341 kts | 54° |
| 2026-05-08 10:58 | 43.92647 | -78.61969 | 23487 ft | 344 kts | 54° |
| 2026-05-08 10:58 | 43.93775 | -78.59053 | 23630 ft | 344 kts | 54° |
| 2026-05-08 10:58 | 43.94902 | -78.56136 | 23732 ft | 345 kts | 54° |
| 2026-05-08 10:59 | 43.96043 | -78.53178 | 23850 ft | 346 kts | 54° |
| 2026-05-08 10:59 | 43.97170 | -78.50250 | 24011 ft | 346 kts | 54° |
| 2026-05-08 10:59 | 43.98296 | -78.47323 | 24148 ft | 345 kts | 54° |
| 2026-05-08 10:59 | 43.99426 | -78.44383 | 24245 ft | 346 kts | 54° |
| 2026-05-08 11:00 | 44.00561 | -78.41423 | 24388 ft | 346 kts | 55° |
| 2026-05-08 11:00 | 44.01684 | -78.38493 | 24516 ft | 346 kts | 56° |
| 2026-05-08 11:00 | 44.02820 | -78.35529 | 24627 ft | 346 kts | 55° |
| 2026-05-08 11:00 | 44.03950 | -78.32582 | 24629 ft | 349 kts | 56° |
| 2026-05-08 11:01 | 44.05082 | -78.29617 | 24801 ft | 347 kts | 56° |
| 2026-05-08 11:01 | 44.06238 | -78.26595 | 24774 ft | 351 kts | 56° |
| 2026-05-08 11:01 | 44.07371 | -78.23624 | 24910 ft | 348 kts | 56° |
| 2026-05-08 11:01 | 44.08511 | -78.20633 | 24965 ft | 350 kts | 57° |
| 2026-05-08 11:02 | 44.09670 | -78.17594 | 24955 ft | 350 kts | 57° |
| 2026-05-08 11:02 | 44.11919 | -78.11680 | 24920 ft | 343 kts | 57° |
| 2026-05-08 11:02 | 44.13046 | -78.08713 | 24926 ft | 340 kts | 58° |
| 2026-05-08 11:03 | 44.14147 | -78.05810 | 24916 ft | 337 kts | 57° |
| 2026-05-08 11:03 | 44.15248 | -78.02902 | 24924 ft | 334 kts | 58° |
| 2026-05-08 11:03 | 44.16316 | -78.00082 | 24912 ft | 332 kts | 57° |
| 2026-05-08 11:03 | 44.17335 | -77.97124 | 24929 ft | 339 kts | 64° |
| 2026-05-08 11:04 | 44.18181 | -77.94064 | 24925 ft | 344 kts | 66° |
| 2026-05-08 11:04 | 44.19038 | -77.90869 | 24923 ft | 348 kts | 66° |
| 2026-05-08 11:04 | 44.19881 | -77.87727 | 24927 ft | 351 kts | 66° |
| 2026-05-08 11:04 | 44.20743 | -77.84521 | 24933 ft | 354 kts | 66° |
| 2026-05-08 11:05 | 44.21614 | -77.81283 | 24925 ft | 357 kts | 66° |
| 2026-05-08 11:05 | 44.22478 | -77.78075 | 24926 ft | 359 kts | 66° |
| 2026-05-08 11:05 | 44.23352 | -77.74822 | 24932 ft | 360 kts | 66° |
| 2026-05-08 11:05 | 44.24231 | -77.71551 | 24938 ft | 361 kts | 66° |
| 2026-05-08 11:06 | 44.25104 | -77.68301 | 24931 ft | 362 kts | 67° |
| 2026-05-08 11:06 | 44.25984 | -77.65023 | 24919 ft | 363 kts | 66° |
| 2026-05-08 11:06 | 44.26874 | -77.61705 | 24931 ft | 363 kts | 67° |
| 2026-05-08 11:06 | 44.27757 | -77.58408 | 24930 ft | 363 kts | 66° |
| 2026-05-08 11:07 | 44.28650 | -77.55069 | 24930 ft | 364 kts | 66° |
| 2026-05-08 11:07 | 44.29527 | -77.51798 | 24933 ft | 364 kts | 66° |
| 2026-05-08 11:07 | 44.30419 | -77.48476 | 24927 ft | 363 kts | 67° |
| 2026-05-08 11:07 | 44.31303 | -77.45190 | 24919 ft | 360 kts | 66° |
| 2026-05-08 11:08 | 44.32177 | -77.41938 | 24926 ft | 357 kts | 67° |
| 2026-05-08 11:08 | 44.33054 | -77.38667 | 24923 ft | 355 kts | 67° |
| 2026-05-08 11:08 | 44.33907 | -77.35484 | 24915 ft | 353 kts | 67° |
| 2026-05-08 11:08 | 44.34774 | -77.32237 | 24927 ft | 350 kts | 68° |
| 2026-05-08 11:09 | 44.35632 | -77.29025 | 24930 ft | 349 kts | 68° |
| 2026-05-08 11:09 | 44.36477 | -77.25863 | 24927 ft | 348 kts | 68° |
| 2026-05-08 11:09 | 44.37317 | -77.22716 | 24922 ft | 347 kts | 68° |
| 2026-05-08 11:09 | 44.38155 | -77.19562 | 24925 ft | 346 kts | 68° |
| 2026-05-08 11:10 | 44.38952 | -77.16413 | 24911 ft | 345 kts | 73° |
| 2026-05-08 11:10 | 44.39392 | -77.13135 | 24934 ft | 345 kts | 82° |
| 2026-05-08 11:10 | 44.39698 | -77.09764 | 24931 ft | 344 kts | 82° |
| 2026-05-08 11:10 | 44.39993 | -77.06463 | 24925 ft | 344 kts | 82° |
| 2026-05-08 11:11 | 44.40289 | -77.03153 | 24923 ft | 343 kts | 82° |
| 2026-05-08 11:11 | 44.40586 | -76.99862 | 24915 ft | 343 kts | 82° |
| 2026-05-08 11:11 | 44.40884 | -76.96577 | 24912 ft | 342 kts | 82° |
| 2026-05-08 11:11 | 44.41184 | -76.93262 | 24903 ft | 342 kts | 82° |
| 2026-05-08 11:12 | 44.41481 | -76.89988 | 24897 ft | 342 kts | 82° |
| 2026-05-08 11:12 | 44.41783 | -76.86660 | 24901 ft | 341 kts | 82° |
| 2026-05-08 11:12 | 44.42077 | -76.83404 | 24898 ft | 341 kts | 82° |
| 2026-05-08 11:12 | 44.42376 | -76.80102 | 24898 ft | 341 kts | 82° |
| 2026-05-08 11:13 | 44.42668 | -76.76852 | 24898 ft | 340 kts | 82° |
| 2026-05-08 11:13 | 44.42966 | -76.73547 | 24895 ft | 340 kts | 82° |
| 2026-05-08 11:13 | 44.43259 | -76.70288 | 24896 ft | 339 kts | 82° |
| 2026-05-08 11:13 | 44.43550 | -76.67034 | 24900 ft | 339 kts | 82° |
| 2026-05-08 11:14 | 44.43843 | -76.63740 | 24897 ft | 339 kts | 82° |
| 2026-05-08 11:14 | 44.44131 | -76.60508 | 24897 ft | 339 kts | 82° |
| 2026-05-08 11:14 | 44.44423 | -76.57217 | 24897 ft | 339 kts | 82° |
| 2026-05-08 11:14 | 44.44710 | -76.53960 | 24898 ft | 339 kts | 82° |
| 2026-05-08 11:15 | 44.44996 | -76.50713 | 24897 ft | 339 kts | 82° |
| 2026-05-08 11:15 | 44.45284 | -76.47433 | 24902 ft | 338 kts | 82° |
| 2026-05-08 11:15 | 44.45568 | -76.44194 | 24902 ft | 338 kts | 82° |
| 2026-05-08 11:15 | 44.45855 | -76.40900 | 24902 ft | 338 kts | 82° |
| 2026-05-08 11:16 | 44.46138 | -76.37641 | 24898 ft | 338 kts | 82° |
| 2026-05-08 11:16 | 44.46420 | -76.34382 | 24899 ft | 338 kts | 83° |
| 2026-05-08 11:16 | 44.46702 | -76.31120 | 24899 ft | 338 kts | 83° |
| 2026-05-08 11:16 | 44.46983 | -76.27857 | 24905 ft | 338 kts | 83° |
| 2026-05-08 11:17 | 44.47259 | -76.24633 | 24907 ft | 338 kts | 83° |
| 2026-05-08 11:17 | 44.47553 | -76.21352 | 24899 ft | 337 kts | 80° |
| 2026-05-08 11:17 | 44.48230 | -76.18240 | 24917 ft | 334 kts | 66° |
| 2026-05-08 11:17 | 44.49162 | -76.15278 | 24911 ft | 334 kts | 64° |
| 2026-05-08 11:18 | 44.50117 | -76.12287 | 24910 ft | 334 kts | 64° |
| 2026-05-08 11:18 | 44.51057 | -76.09335 | 24913 ft | 334 kts | 64° |
| 2026-05-08 11:18 | 44.51993 | -76.06383 | 24913 ft | 335 kts | 64° |
| 2026-05-08 11:18 | 44.52939 | -76.03387 | 24912 ft | 335 kts | 64° |
| 2026-05-08 11:19 | 44.53874 | -76.00417 | 24906 ft | 335 kts | 64° |
| 2026-05-08 11:19 | 44.54808 | -75.97448 | 24912 ft | 335 kts | 64° |
| 2026-05-08 11:19 | 44.55748 | -75.94449 | 24910 ft | 335 kts | 64° |
| 2026-05-08 11:19 | 44.56675 | -75.91486 | 24907 ft | 335 kts | 65° |
| 2026-05-08 11:20 | 44.57615 | -75.88476 | 24902 ft | 335 kts | 64° |
| 2026-05-08 11:20 | 44.58536 | -75.85525 | 24907 ft | 335 kts | 64° |
| 2026-05-08 11:20 | 44.59470 | -75.82527 | 24907 ft | 334 kts | 64° |
| 2026-05-08 11:20 | 44.60402 | -75.79531 | 24909 ft | 334 kts | 65° |
| 2026-05-08 11:21 | 44.61324 | -75.76562 | 24909 ft | 334 kts | 64° |
| 2026-05-08 11:21 | 44.62257 | -75.73556 | 24905 ft | 334 kts | 64° |
| 2026-05-08 11:21 | 44.63184 | -75.70566 | 24907 ft | 334 kts | 65° |
| 2026-05-08 11:21 | 44.64101 | -75.67594 | 24910 ft | 334 kts | 65° |
| 2026-05-08 11:22 | 44.65023 | -75.64609 | 24913 ft | 334 kts | 65° |
| 2026-05-08 11:22 | 44.65878 | -75.61596 | 24911 ft | 335 kts | 67° |
| 2026-05-08 11:22 | 44.66704 | -75.58536 | 24900 ft | 335 kts | 67° |
| 2026-05-08 11:22 | 44.67535 | -75.55456 | 24902 ft | 335 kts | 67° |
| 2026-05-08 11:23 | 44.68362 | -75.52400 | 24901 ft | 336 kts | 67° |
| 2026-05-08 11:23 | 44.69191 | -75.49334 | 24903 ft | 336 kts | 67° |
| 2026-05-08 11:23 | 44.70017 | -75.46283 | 24899 ft | 336 kts | 67° |
| 2026-05-08 11:23 | 44.70849 | -75.43211 | 24903 ft | 336 kts | 67° |
| 2026-05-08 11:24 | 44.71675 | -75.40157 | 24895 ft | 336 kts | 67° |
| 2026-05-08 11:24 | 44.72509 | -75.37080 | 24895 ft | 336 kts | 67° |
| 2026-05-08 11:24 | 44.73376 | -75.34041 | 24898 ft | 336 kts | 66° |
| 2026-05-08 11:24 | 44.74271 | -75.31028 | 24900 ft | 336 kts | 66° |
| 2026-05-08 11:25 | 44.75173 | -75.27990 | 24897 ft | 335 kts | 66° |
| 2026-05-08 11:25 | 44.76069 | -75.24960 | 24899 ft | 335 kts | 66° |
| 2026-05-08 11:25 | 44.76957 | -75.21950 | 24899 ft | 335 kts | 66° |
| 2026-05-08 11:25 | 44.77855 | -75.18902 | 24895 ft | 335 kts | 66° |
| 2026-05-08 11:26 | 44.78738 | -75.15895 | 24897 ft | 335 kts | 66° |
| 2026-05-08 11:26 | 44.79630 | -75.12856 | 24895 ft | 335 kts | 66° |
| 2026-05-08 11:26 | 44.80512 | -75.09842 | 24896 ft | 335 kts | 66° |
| 2026-05-08 11:26 | 44.81390 | -75.06837 | 24897 ft | 335 kts | 66° |
| 2026-05-08 11:27 | 44.82272 | -75.03817 | 24893 ft | 335 kts | 65° |
| 2026-05-08 11:27 | 44.83154 | -75.00791 | 24897 ft | 335 kts | 65° |
| 2026-05-08 11:27 | 44.84045 | -74.97731 | 24892 ft | 335 kts | 65° |
| 2026-05-08 11:27 | 44.84925 | -74.94702 | 24894 ft | 335 kts | 65° |
| 2026-05-08 11:28 | 44.85795 | -74.91707 | 24891 ft | 335 kts | 65° |
| 2026-05-08 11:28 | 44.86682 | -74.88648 | 24892 ft | 335 kts | 65° |
| 2026-05-08 11:28 | 44.87554 | -74.85638 | 24892 ft | 335 kts | 65° |
| 2026-05-08 11:28 | 44.88436 | -74.82588 | 24893 ft | 335 kts | 65° |
| 2026-05-08 11:29 | 44.89315 | -74.79545 | 24891 ft | 336 kts | 66° |
| 2026-05-08 11:29 | 44.90192 | -74.76505 | 24892 ft | 335 kts | 65° |
| 2026-05-08 11:29 | 44.91070 | -74.73457 | 24893 ft | 335 kts | 65° |
| 2026-05-08 11:29 | 44.91912 | -74.70397 | 24889 ft | 336 kts | 69° |
| 2026-05-08 11:30 | 44.92600 | -74.67281 | 24892 ft | 336 kts | 71° |
| 2026-05-08 11:30 | 44.93276 | -74.64080 | 24894 ft | 336 kts | 71° |
| 2026-05-08 11:30 | 44.93938 | -74.60958 | 24891 ft | 336 kts | 71° |
| 2026-05-08 11:30 | 44.94615 | -74.57786 | 24890 ft | 336 kts | 71° |
| 2026-05-08 11:31 | 44.95289 | -74.54642 | 24893 ft | 335 kts | 71° |
| 2026-05-08 11:31 | 44.95962 | -74.51511 | 24896 ft | 336 kts | 71° |
| 2026-05-08 11:31 | 44.96635 | -74.48377 | 24894 ft | 336 kts | 71° |
| 2026-05-08 11:31 | 44.97319 | -74.45199 | 24894 ft | 336 kts | 71° |
| 2026-05-08 11:32 | 44.97995 | -74.42062 | 24894 ft | 336 kts | 70° |
| 2026-05-08 11:32 | 44.98675 | -74.38902 | 24893 ft | 336 kts | 70° |
| 2026-05-08 11:32 | 44.99345 | -74.35783 | 24897 ft | 336 kts | 70° |
| 2026-05-08 11:32 | 44.99984 | -74.32566 | 24893 ft | 336 kts | 73° |
| 2026-05-08 11:33 | 45.00570 | -74.29394 | 24895 ft | 336 kts | 73° |
| 2026-05-08 11:33 | 45.01158 | -74.26207 | 24892 ft | 336 kts | 73° |
| 2026-05-08 11:33 | 45.01747 | -74.23013 | 24892 ft | 335 kts | 73° |
| 2026-05-08 11:33 | 45.02341 | -74.19804 | 24894 ft | 335 kts | 73° |
| 2026-05-08 11:34 | 45.02452 | -74.19199 | 24894 ft | 335 kts | 73° |
| 2026-05-08 11:35 | 45.02469 | -74.19111 | 24894 ft | 335 kts | 73° |
| 2026-05-08 11:35 | 45.03059 | -74.15918 | 24892 ft | 335 kts | 73° |
| 2026-05-08 11:35 | 45.03648 | -74.12723 | 24892 ft | 335 kts | 73° |
| 2026-05-08 11:35 | 45.04230 | -74.09565 | 24888 ft | 335 kts | 73° |
| 2026-05-08 11:36 | 45.04818 | -74.06378 | 24886 ft | 335 kts | 73° |
| 2026-05-08 11:36 | 45.05403 | -74.03197 | 24882 ft | 335 kts | 73° |
| 2026-05-08 11:36 | 45.05994 | -73.99983 | 24877 ft | 335 kts | 73° |
| 2026-05-08 11:36 | 45.06577 | -73.96806 | 24873 ft | 335 kts | 73° |
| 2026-05-08 11:37 | 45.07164 | -73.93600 | 24871 ft | 335 kts | 73° |
| 2026-05-08 11:37 | 45.07688 | -73.90404 | 24859 ft | 336 kts | 79° |
| 2026-05-08 11:37 | 45.07890 | -73.87131 | 24868 ft | 336 kts | 85° |
| 2026-05-08 11:37 | 45.08013 | -73.83844 | 24868 ft | 336 kts | 85° |
| 2026-05-08 11:38 | 45.08136 | -73.80505 | 24866 ft | 336 kts | 85° |
| 2026-05-08 11:38 | 45.08259 | -73.77224 | 24866 ft | 336 kts | 85° |
| 2026-05-08 11:38 | 45.08383 | -73.73913 | 24866 ft | 336 kts | 85° |
| 2026-05-08 11:38 | 45.08507 | -73.70637 | 24867 ft | 336 kts | 85° |
| 2026-05-08 11:39 | 45.08633 | -73.67309 | 24868 ft | 336 kts | 85° |
| 2026-05-08 11:39 | 45.08757 | -73.64019 | 24870 ft | 336 kts | 85° |
| 2026-05-08 11:39 | 45.08881 | -73.60741 | 24869 ft | 336 kts | 85° |
| 2026-05-08 11:39 | 45.09006 | -73.57431 | 24872 ft | 336 kts | 85° |
| 2026-05-08 11:40 | 45.09126 | -73.54147 | 24873 ft | 336 kts | 85° |
| 2026-05-08 11:40 | 45.09240 | -73.50861 | 24875 ft | 336 kts | 85° |
| 2026-05-08 11:40 | 45.09352 | -73.47559 | 24878 ft | 336 kts | 85° |
| 2026-05-08 11:40 | 45.09464 | -73.44240 | 24877 ft | 336 kts | 85° |
| 2026-05-08 11:41 | 45.09574 | -73.40972 | 24877 ft | 336 kts | 85° |
| 2026-05-08 11:41 | 45.09683 | -73.37691 | 24878 ft | 336 kts | 85° |
| 2026-05-08 11:41 | 45.09793 | -73.34377 | 24877 ft | 336 kts | 86° |
| 2026-05-08 11:41 | 45.09903 | -73.31061 | 24879 ft | 336 kts | 86° |
| 2026-05-08 11:42 | 45.10009 | -73.27797 | 24878 ft | 335 kts | 86° |
| 2026-05-08 11:42 | 45.10116 | -73.24487 | 24878 ft | 335 kts | 86° |
| 2026-05-08 11:42 | 45.10222 | -73.21171 | 24877 ft | 335 kts | 86° |
| 2026-05-08 11:42 | 45.10326 | -73.17891 | 24875 ft | 335 kts | 86° |
| 2026-05-08 11:43 | 45.10428 | -73.14623 | 24875 ft | 335 kts | 86° |
| 2026-05-08 11:43 | 45.10532 | -73.11297 | 24875 ft | 335 kts | 86° |
| 2026-05-08 11:43 | 45.10635 | -73.07999 | 24876 ft | 336 kts | 86° |
| 2026-05-08 11:43 | 45.10736 | -73.04717 | 24876 ft | 336 kts | 86° |
| 2026-05-08 11:44 | 45.10834 | -73.01448 | 24874 ft | 336 kts | 86° |
| 2026-05-08 11:44 | 45.10934 | -72.98145 | 24873 ft | 336 kts | 85° |
| 2026-05-08 11:44 | 45.11033 | -72.94819 | 24872 ft | 336 kts | 86° |
| 2026-05-08 11:44 | 45.11131 | -72.91520 | 24868 ft | 336 kts | 86° |
| 2026-05-08 11:45 | 45.11227 | -72.88232 | 24863 ft | 336 kts | 86° |
| 2026-05-08 11:45 | 45.11323 | -72.84939 | 24863 ft | 336 kts | 86° |
| 2026-05-08 11:45 | 45.11418 | -72.81658 | 24864 ft | 336 kts | 86° |
| 2026-05-08 11:45 | 45.11512 | -72.78352 | 24855 ft | 336 kts | 86° |
| 2026-05-08 11:46 | 45.11605 | -72.75029 | 24850 ft | 336 kts | 86° |
| 2026-05-08 11:46 | 45.11696 | -72.71735 | 24849 ft | 336 kts | 86° |
| 2026-05-08 11:46 | 45.11787 | -72.68446 | 24849 ft | 336 kts | 86° |
| 2026-05-08 11:46 | 45.11877 | -72.65161 | 24841 ft | 337 kts | 86° |
| 2026-05-08 11:47 | 45.11966 | -72.61835 | 24842 ft | 337 kts | 85° |
| 2026-05-08 11:47 | 45.12054 | -72.58536 | 24839 ft | 337 kts | 85° |
| 2026-05-08 11:47 | 45.12143 | -72.55186 | 24832 ft | 337 kts | 85° |
| 2026-05-08 11:47 | 45.12229 | -72.51887 | 24837 ft | 337 kts | 86° |
| 2026-05-08 11:48 | 45.12314 | -72.48603 | 24829 ft | 337 kts | 86° |
| 2026-05-08 11:48 | 45.12398 | -72.45267 | 24827 ft | 337 kts | 86° |
| 2026-05-08 11:48 | 45.12481 | -72.41980 | 24830 ft | 337 kts | 86° |
| 2026-05-08 11:48 | 45.12564 | -72.38645 | 24840 ft | 337 kts | 86° |
| 2026-05-08 11:49 | 45.12645 | -72.35340 | 24838 ft | 337 kts | 86° |
| 2026-05-08 11:49 | 45.12726 | -72.32040 | 24839 ft | 336 kts | 86° |
| 2026-05-08 11:49 | 45.12806 | -72.28715 | 24844 ft | 336 kts | 86° |
| 2026-05-08 11:49 | 45.12884 | -72.25399 | 24852 ft | 335 kts | 86° |
| 2026-05-08 11:50 | 45.12964 | -72.22061 | 24855 ft | 335 kts | 86° |
| 2026-05-08 11:50 | 45.13039 | -72.18811 | 24853 ft | 335 kts | 86° |
| 2026-05-08 11:50 | 45.13115 | -72.15473 | 24852 ft | 335 kts | 86° |
| 2026-05-08 11:50 | 45.13189 | -72.12199 | 24846 ft | 335 kts | 86° |
| 2026-05-08 11:51 | 45.13262 | -72.08910 | 24837 ft | 336 kts | 86° |
| 2026-05-08 11:51 | 45.13335 | -72.05598 | 24830 ft | 336 kts | 86° |
| 2026-05-08 11:51 | 45.13407 | -72.02316 | 24831 ft | 336 kts | 86° |
| 2026-05-08 11:51 | 45.13477 | -71.99019 | 24832 ft | 336 kts | 86° |
| 2026-05-08 11:52 | 45.13547 | -71.95688 | 24831 ft | 336 kts | 86° |
| 2026-05-08 11:52 | 45.13616 | -71.92400 | 24831 ft | 336 kts | 86° |
| 2026-05-08 11:52 | 45.13685 | -71.89060 | 24827 ft | 336 kts | 86° |
| 2026-05-08 11:52 | 45.13752 | -71.85752 | 24827 ft | 336 kts | 86° |
| 2026-05-08 11:53 | 45.13818 | -71.82445 | 24824 ft | 336 kts | 86° |
| 2026-05-08 11:53 | 45.13882 | -71.79168 | 24819 ft | 336 kts | 86° |
| 2026-05-08 11:53 | 45.13946 | -71.75822 | 24821 ft | 336 kts | 86° |
| 2026-05-08 11:53 | 45.14008 | -71.72539 | 24817 ft | 336 kts | 86° |
| 2026-05-08 11:54 | 45.14071 | -71.69253 | 24819 ft | 336 kts | 86° |
| 2026-05-08 11:54 | 45.14133 | -71.65951 | 24819 ft | 336 kts | 86° |
| 2026-05-08 11:54 | 45.14194 | -71.62613 | 24820 ft | 336 kts | 86° |
| 2026-05-08 11:54 | 45.14257 | -71.59348 | 24813 ft | 336 kts | 85° |
| 2026-05-08 11:55 | 45.14579 | -71.56073 | 24823 ft | 333 kts | 75° |
| 2026-05-08 11:55 | 45.15106 | -71.52867 | 24818 ft | 333 kts | 74° |
| 2026-05-08 11:55 | 45.15640 | -71.49682 | 24812 ft | 333 kts | 74° |
| 2026-05-08 11:55 | 45.16172 | -71.46489 | 24811 ft | 334 kts | 74° |
| 2026-05-08 11:56 | 45.16701 | -71.43300 | 24806 ft | 334 kts | 74° |
| 2026-05-08 11:56 | 45.17230 | -71.40089 | 24800 ft | 334 kts | 74° |
| 2026-05-08 11:56 | 45.17760 | -71.36854 | 24791 ft | 334 kts | 74° |
| 2026-05-08 11:56 | 45.18279 | -71.33681 | 24786 ft | 334 kts | 75° |
| 2026-05-08 11:57 | 45.18801 | -71.30479 | 24781 ft | 334 kts | 75° |
| 2026-05-08 11:57 | 45.19324 | -71.27254 | 24782 ft | 334 kts | 75° |
| 2026-05-08 11:57 | 45.19847 | -71.24031 | 24772 ft | 333 kts | 75° |
| 2026-05-08 11:57 | 45.20359 | -71.20856 | 24770 ft | 333 kts | 75° |
| 2026-05-08 11:58 | 45.20879 | -71.17628 | 24771 ft | 333 kts | 75° |
| 2026-05-08 11:58 | 45.21388 | -71.14467 | 24772 ft | 333 kts | 75° |
| 2026-05-08 11:58 | 45.21906 | -71.11238 | 24775 ft | 332 kts | 75° |
| 2026-05-08 11:59 | 45.22921 | -71.04894 | 24780 ft | 332 kts | 75° |
| 2026-05-08 11:59 | 45.23431 | -71.01704 | 24779 ft | 332 kts | 75° |
| 2026-05-08 11:59 | 45.23944 | -70.98491 | 24778 ft | 332 kts | 75° |
| 2026-05-08 11:59 | 45.24449 | -70.95317 | 24778 ft | 332 kts | 75° |
| 2026-05-08 12:00 | 45.24960 | -70.92101 | 24774 ft | 332 kts | 75° |
| 2026-05-08 12:00 | 45.25463 | -70.88915 | 24771 ft | 333 kts | 75° |
| 2026-05-08 12:00 | 45.25969 | -70.85699 | 24766 ft | 333 kts | 75° |
| 2026-05-08 12:00 | 45.26468 | -70.82535 | 24770 ft | 333 kts | 75° |
| 2026-05-08 12:01 | 45.26977 | -70.79296 | 24763 ft | 333 kts | 75° |
| 2026-05-08 12:01 | 45.27478 | -70.76111 | 24757 ft | 333 kts | 75° |
| 2026-05-08 12:01 | 45.27978 | -70.72921 | 24760 ft | 333 kts | 75° |
| 2026-05-08 12:01 | 45.28479 | -70.69725 | 24762 ft | 333 kts | 75° |
| 2026-05-08 12:02 | 45.28983 | -70.66496 | 24764 ft | 333 kts | 75° |
| 2026-05-08 12:02 | 45.29479 | -70.63303 | 24769 ft | 333 kts | 75° |
| 2026-05-08 12:02 | 45.29977 | -70.60089 | 24773 ft | 333 kts | 75° |
| 2026-05-08 12:02 | 45.30475 | -70.56860 | 24780 ft | 333 kts | 75° |
| 2026-05-08 12:03 | 45.30969 | -70.53657 | 24792 ft | 332 kts | 75° |
| 2026-05-08 12:03 | 45.31457 | -70.50488 | 24794 ft | 333 kts | 75° |
| 2026-05-08 12:03 | 45.31955 | -70.47250 | 24804 ft | 333 kts | 75° |
| 2026-05-08 12:03 | 45.32449 | -70.44038 | 24806 ft | 333 kts | 75° |
| 2026-05-08 12:04 | 45.32937 | -70.40859 | 24801 ft | 334 kts | 75° |
| 2026-05-08 12:04 | 45.33433 | -70.37618 | 24798 ft | 334 kts | 75° |
| 2026-05-08 12:04 | 45.33923 | -70.34408 | 24798 ft | 334 kts | 76° |
| 2026-05-08 12:04 | 45.34417 | -70.31171 | 24797 ft | 334 kts | 76° |
| 2026-05-08 12:05 | 45.34909 | -70.27947 | 24799 ft | 334 kts | 76° |
| 2026-05-08 12:05 | 45.35399 | -70.24721 | 24799 ft | 334 kts | 76° |
| 2026-05-08 12:05 | 45.35891 | -70.21481 | 24796 ft | 334 kts | 76° |
| 2026-05-08 12:05 | 45.36375 | -70.18283 | 24795 ft | 334 kts | 76° |
| 2026-05-08 12:06 | 45.36869 | -70.15012 | 24793 ft | 334 kts | 76° |
| 2026-05-08 12:06 | 45.37355 | -70.11791 | 24791 ft | 335 kts | 76° |
| 2026-05-08 12:06 | 45.37840 | -70.08565 | 24789 ft | 335 kts | 76° |
| 2026-05-08 12:06 | 45.38329 | -70.05314 | 24780 ft | 335 kts | 75° |
| 2026-05-08 12:07 | 45.38811 | -70.02097 | 24769 ft | 335 kts | 75° |
| 2026-05-08 12:07 | 45.39297 | -69.98842 | 24767 ft | 336 kts | 75° |
| 2026-05-08 12:07 | 45.39777 | -69.95628 | 24762 ft | 336 kts | 75° |
| 2026-05-08 12:07 | 45.40263 | -69.92367 | 24757 ft | 335 kts | 76° |
| 2026-05-08 12:08 | 45.40746 | -69.89118 | 24757 ft | 335 kts | 76° |
| 2026-05-08 12:08 | 45.41222 | -69.85908 | 24755 ft | 335 kts | 76° |
| 2026-05-08 12:08 | 45.41703 | -69.82666 | 24752 ft | 335 kts | 76° |
| 2026-05-08 12:08 | 45.42184 | -69.79404 | 24750 ft | 335 kts | 76° |
| 2026-05-08 12:09 | 45.42657 | -69.76197 | 24753 ft | 335 kts | 76° |
| 2026-05-08 12:09 | 45.43140 | -69.72918 | 24753 ft | 335 kts | 76° |
| 2026-05-08 12:09 | 45.43615 | -69.69684 | 24754 ft | 335 kts | 76° |
| 2026-05-08 12:09 | 45.44091 | -69.66430 | 24757 ft | 334 kts | 76° |
| 2026-05-08 12:10 | 45.44564 | -69.63193 | 24762 ft | 334 kts | 76° |
| 2026-05-08 12:10 | 45.45038 | -69.59950 | 24764 ft | 334 kts | 76° |
| 2026-05-08 12:10 | 45.45505 | -69.56743 | 24769 ft | 334 kts | 76° |
| 2026-05-08 12:10 | 45.45981 | -69.53468 | 24777 ft | 334 kts | 76° |
| 2026-05-08 12:11 | 45.46453 | -69.50209 | 24778 ft | 334 kts | 76° |
| 2026-05-08 12:11 | 45.46917 | -69.47001 | 24778 ft | 334 kts | 76° |
| 2026-05-08 12:11 | 45.47389 | -69.43735 | 24782 ft | 334 kts | 76° |
| 2026-05-08 12:11 | 45.47860 | -69.40466 | 24779 ft | 334 kts | 76° |
| 2026-05-08 12:12 | 45.48328 | -69.37206 | 24777 ft | 334 kts | 76° |
| 2026-05-08 12:12 | 45.48792 | -69.33971 | 24776 ft | 335 kts | 77° |
| 2026-05-08 12:12 | 45.49255 | -69.30738 | 24774 ft | 334 kts | 77° |
| 2026-05-08 12:12 | 45.49721 | -69.27472 | 24774 ft | 334 kts | 77° |
| 2026-05-08 12:13 | 45.50180 | -69.24254 | 24774 ft | 334 kts | 77° |
| 2026-05-08 12:13 | 45.50643 | -69.20997 | 24776 ft | 334 kts | 76° |
| 2026-05-08 12:13 | 45.51103 | -69.17755 | 24772 ft | 333 kts | 77° |
| 2026-05-08 12:13 | 45.51559 | -69.14533 | 24780 ft | 333 kts | 77° |
| 2026-05-08 12:14 | 45.52022 | -69.11258 | 24778 ft | 333 kts | 77° |
| 2026-05-08 12:14 | 45.52474 | -69.08051 | 24783 ft | 333 kts | 77° |
| 2026-05-08 12:14 | 45.52936 | -69.04771 | 24777 ft | 333 kts | 77° |
| 2026-05-08 12:14 | 45.53386 | -69.01566 | 24785 ft | 333 kts | 77° |
| 2026-05-08 12:15 | 45.53840 | -68.98322 | 24788 ft | 333 kts | 77° |
| 2026-05-08 12:15 | 45.54294 | -68.95074 | 24779 ft | 333 kts | 77° |
| 2026-05-08 12:15 | 45.54743 | -68.91853 | 24778 ft | 333 kts | 77° |
| 2026-05-08 12:15 | 45.55196 | -68.88599 | 24776 ft | 333 kts | 77° |
| 2026-05-08 12:16 | 45.55646 | -68.85360 | 24770 ft | 333 kts | 77° |
| 2026-05-08 12:16 | 45.56098 | -68.82095 | 24770 ft | 334 kts | 77° |
| 2026-05-08 12:16 | 45.56546 | -68.78860 | 24770 ft | 334 kts | 77° |
| 2026-05-08 12:16 | 45.56991 | -68.75629 | 24768 ft | 334 kts | 77° |
| 2026-05-08 12:17 | 45.57437 | -68.72387 | 24766 ft | 335 kts | 77° |
| 2026-05-08 12:17 | 45.57882 | -68.69144 | 24766 ft | 335 kts | 77° |
| 2026-05-08 12:17 | 45.58328 | -68.65889 | 24764 ft | 335 kts | 77° |
| 2026-05-08 12:17 | 45.58776 | -68.62612 | 24764 ft | 335 kts | 78° |
| 2026-05-08 12:18 | 45.59222 | -68.59348 | 24763 ft | 335 kts | 77° |
| 2026-05-08 12:18 | 45.59665 | -68.56091 | 24766 ft | 335 kts | 78° |
| 2026-05-08 12:18 | 45.60112 | -68.52801 | 24765 ft | 336 kts | 78° |
| 2026-05-08 12:18 | 45.60551 | -68.49563 | 24765 ft | 336 kts | 78° |
| 2026-05-08 12:19 | 45.60995 | -68.46272 | 24765 ft | 336 kts | 78° |
| 2026-05-08 12:19 | 45.61438 | -68.42989 | 24767 ft | 337 kts | 78° |
| 2026-05-08 12:19 | 45.61877 | -68.39724 | 24765 ft | 337 kts | 78° |
| 2026-05-08 12:19 | 45.62318 | -68.36446 | 24765 ft | 337 kts | 78° |
| 2026-05-08 12:20 | 45.62761 | -68.33135 | 24762 ft | 337 kts | 79° |
| 2026-05-08 12:20 | 45.63203 | -68.29828 | 24761 ft | 337 kts | 79° |
| 2026-05-08 12:20 | 45.63639 | -68.26562 | 24760 ft | 337 kts | 79° |
| 2026-05-08 12:20 | 45.64075 | -68.23285 | 24762 ft | 337 kts | 79° |
| 2026-05-08 12:21 | 45.64511 | -68.19994 | 24759 ft | 338 kts | 79° |
| 2026-05-08 12:21 | 45.64945 | -68.16724 | 24761 ft | 338 kts | 79° |
| 2026-05-08 12:21 | 45.65385 | -68.13391 | 24761 ft | 338 kts | 79° |
| 2026-05-08 12:21 | 45.65819 | -68.10098 | 24761 ft | 338 kts | 80° |
| 2026-05-08 12:22 | 45.66250 | -68.06820 | 24757 ft | 338 kts | 80° |
| 2026-05-08 12:22 | 45.66679 | -68.03542 | 24753 ft | 338 kts | 79° |
| 2026-05-08 12:22 | 45.67115 | -68.00214 | 24753 ft | 338 kts | 80° |
| 2026-05-08 12:22 | 45.67548 | -67.96905 | 24752 ft | 338 kts | 80° |
| 2026-05-08 12:23 | 45.67974 | -67.93629 | 24757 ft | 338 kts | 79° |
| 2026-05-08 12:23 | 45.68404 | -67.90318 | 24745 ft | 338 kts | 80° |
| 2026-05-08 12:23 | 45.68832 | -67.87020 | 24754 ft | 338 kts | 80° |
| 2026-05-08 12:23 | 45.69256 | -67.83741 | 24750 ft | 338 kts | 80° |
| 2026-05-08 12:24 | 45.69686 | -67.80413 | 24754 ft | 338 kts | 81° |
| 2026-05-08 12:24 | 45.70198 | -67.77155 | 24759 ft | 339 kts | 76° |
| 2026-05-08 12:24 | 45.70828 | -67.73884 | 24756 ft | 340 kts | 75° |
| 2026-05-08 12:24 | 45.71455 | -67.70649 | 24757 ft | 340 kts | 75° |
| 2026-05-08 12:25 | 45.72083 | -67.67378 | 24753 ft | 340 kts | 75° |
| 2026-05-08 12:25 | 45.72704 | -67.64122 | 24752 ft | 341 kts | 76° |
| 2026-05-08 12:25 | 45.73318 | -67.60877 | 24751 ft | 341 kts | 75° |
| 2026-05-08 12:25 | 45.73935 | -67.57597 | 24734 ft | 342 kts | 76° |
| 2026-05-08 12:26 | 45.74548 | -67.54331 | 24724 ft | 342 kts | 76° |
| 2026-05-08 12:26 | 45.75166 | -67.51023 | 24736 ft | 343 kts | 76° |
| 2026-05-08 12:26 | 45.75779 | -67.47724 | 24727 ft | 343 kts | 76° |
| 2026-05-08 12:26 | 45.76388 | -67.44441 | 24731 ft | 343 kts | 76° |
| 2026-05-08 12:27 | 45.77003 | -67.41119 | 24734 ft | 344 kts | 76° |
| 2026-05-08 12:27 | 45.77613 | -67.37812 | 24720 ft | 344 kts | 77° |
| 2026-05-08 12:27 | 45.78224 | -67.34501 | 24727 ft | 345 kts | 78° |
| 2026-05-08 12:27 | 45.78841 | -67.31145 | 24727 ft | 343 kts | 78° |
| 2026-05-08 12:28 | 45.79449 | -67.27830 | 24732 ft | 343 kts | 78° |
| 2026-05-08 12:28 | 45.80054 | -67.24527 | 24721 ft | 344 kts | 78° |
| 2026-05-08 12:28 | 45.80659 | -67.21216 | 24713 ft | 344 kts | 79° |
| 2026-05-08 12:28 | 45.81262 | -67.17914 | 24730 ft | 344 kts | 79° |
| 2026-05-08 12:29 | 45.81863 | -67.14610 | 24734 ft | 345 kts | 78° |
| 2026-05-08 12:29 | 45.82470 | -67.11266 | 24741 ft | 345 kts | 78° |
| 2026-05-08 12:29 | 45.83076 | -67.07926 | 24738 ft | 346 kts | 79° |
| 2026-05-08 12:29 | 45.83678 | -67.04599 | 24733 ft | 347 kts | 79° |
| 2026-05-08 12:30 | 45.84279 | -67.01274 | 24739 ft | 347 kts | 79° |
| 2026-05-08 12:30 | 45.84885 | -66.97913 | 24736 ft | 347 kts | 79° |
| 2026-05-08 12:30 | 45.85488 | -66.94569 | 24718 ft | 347 kts | 79° |
| 2026-05-08 12:30 | 45.86094 | -66.91201 | 24730 ft | 347 kts | 80° |
| 2026-05-08 12:31 | 45.86690 | -66.87875 | 24717 ft | 348 kts | 79° |
| 2026-05-08 12:31 | 45.87297 | -66.84488 | 24714 ft | 348 kts | 80° |
| 2026-05-08 12:31 | 45.87895 | -66.81141 | 24739 ft | 348 kts | 80° |
| 2026-05-08 12:31 | 45.88490 | -66.77804 | 24725 ft | 349 kts | 79° |
| 2026-05-08 12:32 | 45.89095 | -66.74406 | 24707 ft | 349 kts | 80° |
| 2026-05-08 12:32 | 45.89688 | -66.71070 | 24715 ft | 349 kts | 80° |
| 2026-05-08 12:32 | 45.90289 | -66.67683 | 24709 ft | 349 kts | 81° |
| 2026-05-08 12:32 | 45.90884 | -66.64325 | 24717 ft | 350 kts | 81° |
| 2026-05-08 12:33 | 45.91478 | -66.60960 | 24703 ft | 350 kts | 81° |
| 2026-05-08 12:33 | 45.92073 | -66.57587 | 24716 ft | 350 kts | 81° |
| 2026-05-08 12:33 | 45.92675 | -66.54171 | 24713 ft | 351 kts | 81° |
| 2026-05-08 12:33 | 45.93266 | -66.50803 | 24701 ft | 352 kts | 81° |
| 2026-05-08 12:34 | 45.93868 | -66.47372 | 24714 ft | 353 kts | 81° |
| 2026-05-08 12:34 | 45.94461 | -66.43984 | 24697 ft | 353 kts | 82° |
| 2026-05-08 12:34 | 45.95055 | -66.40556 | 24706 ft | 353 kts | 82° |
| 2026-05-08 12:34 | 45.95645 | -66.37125 | 24711 ft | 354 kts | 82° |
| 2026-05-08 12:35 | 45.96226 | -66.33732 | 24707 ft | 354 kts | 83° |
| 2026-05-08 12:35 | 45.96812 | -66.30309 | 24700 ft | 354 kts | 83° |
| 2026-05-08 12:35 | 45.97407 | -66.26828 | 24716 ft | 354 kts | 83° |
| 2026-05-08 12:35 | 45.97991 | -66.23401 | 24627 ft | 355 kts | 83° |
| 2026-05-08 12:36 | 45.98581 | -66.19937 | 24233 ft | 357 kts | 83° |
| 2026-05-08 12:36 | 45.99173 | -66.16472 | 23747 ft | 357 kts | 83° |
| 2026-05-08 12:36 | 45.99757 | -66.13047 | 23284 ft | 356 kts | 82° |
| 2026-05-08 12:36 | 46.00346 | -66.09586 | 22795 ft | 355 kts | 82° |
| 2026-05-08 12:37 | 46.00925 | -66.06164 | 22323 ft | 354 kts | 82° |
| 2026-05-08 12:37 | 46.01508 | -66.02715 | 21840 ft | 353 kts | 82° |
| 2026-05-08 12:37 | 46.02079 | -65.99329 | 21369 ft | 352 kts | 81° |
| 2026-05-08 12:37 | 46.02652 | -65.95921 | 20886 ft | 350 kts | 81° |
| 2026-05-08 12:38 | 46.03213 | -65.92577 | 20411 ft | 347 kts | 81° |
| 2026-05-08 12:38 | 46.03780 | -65.89194 | 19945 ft | 344 kts | 80° |
| 2026-05-08 12:38 | 46.04333 | -65.85884 | 19480 ft | 342 kts | 80° |
| 2026-05-08 12:38 | 46.04886 | -65.82572 | 19015 ft | 338 kts | 80° |
| 2026-05-08 12:39 | 46.05427 | -65.79323 | 18553 ft | 335 kts | 80° |
| 2026-05-08 12:39 | 46.05967 | -65.76072 | 18095 ft | 332 kts | 80° |
| 2026-05-08 12:39 | 46.06502 | -65.72846 | 17655 ft | 329 kts | 80° |
| 2026-05-08 12:39 | 46.07024 | -65.69703 | 17414 ft | 319 kts | 80° |
| 2026-05-08 12:40 | 46.07532 | -65.66641 | 17048 ft | 315 kts | 79° |
| 2026-05-08 12:40 | 46.08038 | -65.63579 | 16639 ft | 312 kts | 80° |
| 2026-05-08 12:40 | 46.08529 | -65.60586 | 16224 ft | 309 kts | 79° |
| 2026-05-08 12:40 | 46.09022 | -65.57584 | 15806 ft | 307 kts | 79° |
| 2026-05-08 12:41 | 46.09510 | -65.54600 | 15398 ft | 305 kts | 79° |
| 2026-05-08 12:41 | 46.09991 | -65.51660 | 14987 ft | 303 kts | 79° |
| 2026-05-08 12:41 | 46.10477 | -65.48679 | 14570 ft | 301 kts | 79° |
| 2026-05-08 12:41 | 46.10951 | -65.45769 | 14164 ft | 299 kts | 79° |
| 2026-05-08 12:42 | 46.11427 | -65.42845 | 13766 ft | 298 kts | 79° |
| 2026-05-08 12:42 | 46.11897 | -65.39951 | 13367 ft | 296 kts | 79° |
| 2026-05-08 12:42 | 46.12363 | -65.37073 | 12966 ft | 295 kts | 78° |
| 2026-05-08 12:42 | 46.12819 | -65.34248 | 12572 ft | 293 kts | 79° |
| 2026-05-08 12:43 | 46.13280 | -65.31393 | 12165 ft | 291 kts | 78° |
| 2026-05-08 12:43 | 46.13739 | -65.28549 | 11778 ft | 289 kts | 78° |
| 2026-05-08 12:43 | 46.14192 | -65.25742 | 11389 ft | 287 kts | 78° |
| 2026-05-08 12:43 | 46.14634 | -65.22988 | 11002 ft | 285 kts | 78° |
| 2026-05-08 12:44 | 46.15045 | -65.20428 | 10646 ft | 283 kts | 78° |
| 2026-05-08 12:44 | 46.15486 | -65.17676 | 10266 ft | 281 kts | 77° |
| 2026-05-08 12:44 | 46.15923 | -65.14945 | 9886 ft | 279 kts | 77° |
| 2026-05-08 12:44 | 46.16355 | -65.12246 | 9510 ft | 275 kts | 77° |
| 2026-05-08 12:45 | 46.16780 | -65.09594 | 9142 ft | 269 kts | 77° |
| 2026-05-08 12:45 | 46.17194 | -65.07002 | 8780 ft | 263 kts | 77° |
| 2026-05-08 12:45 | 46.17602 | -65.04443 | 8426 ft | 258 kts | 76° |
| 2026-05-08 12:45 | 46.17997 | -65.01960 | 8084 ft | 253 kts | 76° |
| 2026-05-08 12:46 | 46.18380 | -64.99548 | 7756 ft | 248 kts | 76° |
| 2026-05-08 12:46 | 46.18760 | -64.97148 | 7423 ft | 243 kts | 76° |
| 2026-05-08 12:46 | 46.19133 | -64.94788 | 7094 ft | 238 kts | 76° |
| 2026-05-08 12:46 | 46.19495 | -64.92499 | 6774 ft | 233 kts | 76° |
| 2026-05-08 12:47 | 46.19851 | -64.90241 | 6466 ft | 227 kts | 76° |
| 2026-05-08 12:47 | 46.20195 | -64.88057 | 6164 ft | 224 kts | 76° |
| 2026-05-08 12:47 | 46.20541 | -64.85839 | 5868 ft | 230 kts | 76° |
| 2026-05-08 12:47 | 46.20892 | -64.83584 | 5556 ft | 233 kts | 76° |
| 2026-05-08 12:48 | 46.21249 | -64.81298 | 5272 ft | 230 kts | 76° |
| 2026-05-08 12:48 | 46.21596 | -64.79083 | 4943 ft | 227 kts | 75° |
| 2026-05-08 12:48 | 46.21945 | -64.76862 | 4622 ft | 223 kts | 75° |
| 2026-05-08 12:48 | 46.22278 | -64.74730 | 4325 ft | 218 kts | 76° |
| 2026-05-08 12:49 | 46.22611 | -64.72600 | 4029 ft | 213 kts | 75° |
| 2026-05-08 12:49 | 46.22929 | -64.70559 | 3736 ft | 202 kts | 75° |
| 2026-05-08 12:49 | 46.23222 | -64.68686 | 3497 ft | 185 kts | 75° |
| 2026-05-08 12:49 | 46.23484 | -64.66944 | 3252 ft | 170 kts | 78° |
| 2026-05-08 12:50 | 46.23515 | -64.65280 | 3027 ft | 164 kts | 96° |
| 2026-05-08 12:50 | 46.23219 | -64.63701 | 2811 ft | 163 kts | 113° |
| 2026-05-08 12:50 | 46.22654 | -64.62319 | 2597 ft | 161 kts | 129° |
| 2026-05-08 12:50 | 46.21856 | -64.61198 | 2376 ft | 160 kts | 146° |
| 2026-05-08 12:51 | 46.20884 | -64.60423 | 2159 ft | 157 kts | 162° |
| 2026-05-08 12:51 | 46.18776 | -64.60074 | 1747 ft | 152 kts | 192° |
| 2026-05-08 12:51 | 46.17768 | -64.60472 | 1544 ft | 150 kts | 206° |
| 2026-05-08 12:52 | 46.16860 | -64.61208 | 1343 ft | 147 kts | 218° |
| 2026-05-08 12:52 | 46.15345 | -64.63147 | 960 ft | 146 kts | 227° |
| 2026-05-08 12:52 | 46.14603 | -64.64154 | 764 ft | 147 kts | 225° |
| 2026-05-08 12:53 | 46.13845 | -64.65160 | 522 ft | 147 kts | 224° |
| 2026-05-08 12:53 | 46.13096 | -64.66132 | 348 ft | 143 kts | 224° |
| 2026-05-08 12:53 | 46.12373 | -64.67091 | 208 ft | 141 kts | 225° |
| 2026-05-08 12:53 | 46.11691 | -64.67997 | 198 ft | 104 kts | 222° |
| 2026-05-08 12:54 | 46.11349 | -64.68447 | 207 ft | 29 kts | 223° |
| 2026-05-08 12:54 | 46.11321 | -64.68521 | 208 ft | 6 kts | 284° |
| 2026-05-08 12:54 | 46.11348 | -64.68580 | 208 ft | 5 kts | 312° |
| 2026-05-08 12:54 | 46.11366 | -64.68607 | 207 ft | 4 kts | 312° |
| 2026-05-08 12:55 | 46.11391 | -64.68649 | 207 ft | 4 kts | 312° |
| 2026-05-08 12:55 | 46.11411 | -64.68678 | 206 ft | 3 kts | 312° |
| 2026-05-08 12:55 | 46.11430 | -64.68710 | 206 ft | 5 kts | 312° |
| 2026-05-08 12:55 | 46.11458 | -64.68743 | 206 ft | 4 kts | 343° |
| 2026-05-08 12:56 | 46.11485 | -64.68724 | 205 ft | 5 kts | 36° |
| 2026-05-08 12:56 | 46.11506 | -64.68700 | 205 ft | 2 kts | 22° |
| 2026-05-08 12:56 | 46.11525 | -64.68713 | 205 ft | 3 kts | 314° |
| 2026-05-08 12:56 | 46.11539 | -64.68737 | 205 ft | 2 kts | 311° |
| 2026-05-08 12:57 | 46.11552 | -64.68758 | 204 ft | 2 kts | 312° |
| 2026-05-08 12:57 | 46.11554 | -64.68761 | 204 ft | 1 kts | 312° |
| 2026-05-08 12:57 | 46.11555 | -64.68762 | 204 ft | 0 kts | 312° |